Terminal Aerodrome Forecast
Issued by NWS Cleveland, OH

Home | Current Version | Previous Version | Graphics & Text | Print | Product List | Glossary On
Versions: 1 2 3 4 5 6 7 8 9 10 11 12 13 14 15 16 17 18 19 20 21 22 23 24 25 26 27 28
000
FTUS41 KCLE 171414 AAA
TAFERI
TAF AMD
KERI 171414Z 1714/1812 08004KT 5SM BR SCT025
      TEMPO 1714/1716 6SM BR BKN025
     FM171600 11007KT 6SM BR BKN025
     FM180300 18007KT 6SM BR VCSH OVC030
     FM180900 20010KT 5SM BR OVC012=

USA.gov is the U.S. government's official web portal to all federal, state and local government web resources and services.